La Ronge Airport
CYVC : now visible

Airfield :











YOU CAN JOIN US ON...

 
LOGIN :

Register | Disclaimer

   EN    FR    IT 

 









Legend :    VFR   Marginal VFR   IFR   Intensive IFR   Very Intensive IFR
Visi :
Ceiling :
>= 8 km
>= 3000ft
5 to 8 km
1000 to 3000 ft
1500m to 5 km
500 to 1000 ft
800 to 1500m
200 to 500 ft
< 800m
< 200 ft
Symbols :   Thunderstorms  Fog  Heavy snow  Heavy precipitations  Wind > 20 kt






- Airport Elevation : 1242 ft
- IATA code : YVC


CYVC - La Ronge

CURRENT METAR :
  • 201700Z 36003KT 280V010 15SM BKN049 OVC250 M03/M09 A3001 RMK SC7CI1 SLP190

EXPIRED METARs :
  • 201600Z 28003KT 15SM BKN044 OVC250 M04/M09 A3001 RMK SC7CI1 SLP190
  • 201500Z 00000KT 15SM OVC040 M05/M10 A3001 RMK SC8 SLP190

TAF TAF CYVC
Valid from the 20 at 13:00 until the 21 at 01:00 UTC


201238Z 2013/2101 24005KT P6SM OVC050
TEMPO 2013/2101 P6SM -SN
BECMG 2017/2019 29007KT RMK NXT FCST BY 201900Z
CZWG FIR / North America



MET'MAP, your aeronautical weather chart ! - Copyright ORBIFLY December 2007 - Disclaimer

ORBIFLY MET'MAP TEAM :

Programming & Development : Alexandra Zaïnal
Concept & original design : Baudouin d'Aumeries
Assistance for programming : Marc-Olivier Méhu
Technical & hardware support : Manuel Goepfert

Contact : metmap@orbifly.com




SOURCES & CREDITS :

   NOAA       Earth
Advisory